Airfield :
LOGIN :

Register | Disclaimer

   EN    FR    IT 

 










Legend :    VFR   Marginal VFR   IFR   Intensive IFR   Very Intensive IFR
Visi :
Ceiling :
>= 8 km
>= 3000ft
5 to 8 km
1000 to 3000 ft
1500m to 5 km
500 to 1000 ft
800 to 1500m
200 to 500 ft
< 800m
< 200 ft
Symbols :   Thunderstorms  Fog  Heavy snow  Heavy precipitations  Wind > 20 kt
SIGMETs :     Misc.  Thunderstorms  Icing  Turbulence  Mountain Waves  Volcanic Ashes







- Airport Elevation : 268 ft
- IATA code : BFS
- Download approach charts


EGAA - Belfast Aldergrove

CURRENT METAR :
  • 100220Z 24009KT CAVOK 05/04 Q1023

EXPIRED METARs :
  • 100150Z 24007KT 9999 FEW036 04/03 Q1023
  • 100120Z 25009KT 9999 FEW028 SCT033 BKN040 05/04 Q1023
  • 100050Z 24009KT 9999 FEW020 SCT027 BKN034 05/04 Q1023
  • 100020Z 24009KT 9999 FEW020 05/04 Q1023
  • 092350Z 24009KT 9999 FEW034 05/04 Q1022
  • 092320Z 25009KT 9999 FEW021 SCT032 05/04 Q1022

TAF TAF EGAA
Valid from the 10 at 00:00 until the 11 at 00:00 UTC


092308Z 1000/1024 28010KT 9999 FEW035
BECMG 1006/1009 20005KT
PROB30
TEMPO 1014/1019 7000 -RADZ BKN014
BECMG 1015/1018 14010KT
BECMG 1019/1022 BKN012
PROB30 1020/1024 BKN007
No reported NOTAMs for that airfield.



MET'MAP, your aeronautical weather chart ! - Copyright ORBIFLY December 2007 - Disclaimer

ORBIFLY MET'MAP TEAM :

Programming & Development : Alexandra Zaïnal
Concept & Development : Baudouin d'Aumeries
Co-Development & Prog : Marc-Olivier Méhu
Technical & hardware support : Manuel Goepfert

Contact : metmap@orbifly.com




SOURCES & CREDITS :

   NOAA